Duckwater, Nevada Weather observations

Data are for 10 minute period ending at time listed.
 Day   Time   Solar   Ave.   Ave.  Ave.  Vector  Max.   Baro.   Total    
  of    of     Rad.   Air    Rel.  Wind   Wind   Wind  Press.  Precip.   
Year   Day            Temp.  Hum.  Speed  Dir.   Gust                    
2015   (PST)   w/m2    F      %     mph   deg.    mph    mb.     in.    
-----------------------------------------------------------------------
 247    4:10      0   59.3    30    7.0   138    11.2   828.5   0.00  
 247    4:20      0   58.9    30    6.5   128     9.6   828.6   0.00  
 247    4:30      0   58.9    30    7.5   141    11.1   828.7   0.00  
 247    4:40      0   58.3    31    6.6   142    10.3   828.7   0.00  
 247    4:50      0   57.7    32    6.3   135    10.4   828.7   0.00  
 247    5:00      0   57.9    32    5.8   133     8.8   828.7   0.00  
 247    5:10      2   58.6    31    5.3   143     8.6   828.7   0.00  
 247    5:20      4   58.6    32    7.0   133    10.9   828.9   0.00  
 247    5:30      7   58.7    32    6.5   137     9.9   829.0   0.00  
 247    5:40     19   59.4    32    7.7   138    12.3   829.0   0.00  
 247    5:50     64   60.9    31    6.9   141    11.5   829.1   0.00  
 247    6:00    103   61.6    30    6.1   143     8.6   829.2   0.00  
 247    6:10    137   62.7    29    7.0   149    10.5   829.2   0.00  
 247    6:20    168   64.2    28    9.0   158    13.9   829.2   0.00  
 247    6:30    200   64.7    26    9.8   150    13.8   829.4   0.00  
 247    6:40    235   66.1    26    9.0   169    11.6   829.4   0.00  
 247    6:50    270   67.0    25    9.4   172    14.0   829.4   0.00  
 247    7:00    305   67.6    23   10.1   176    15.7   829.3   0.00  
 247    7:10    340   67.7    22   11.6   177    18.6   829.3   0.00  
 247    7:20    375   68.2    20   10.5   179    15.4   829.4   0.00  
 247    7:30    410   68.5    19   12.1   169    18.6   829.4   0.00  
 247    7:40    445   68.9    19   11.7   171    16.9   829.4   0.00  
 247    7:50    476   69.2    18   12.7   160    18.2   829.3   0.00  
 247    8:00    508   69.4    17   12.7   163    19.3   829.2   0.00  
 247    8:10    540   70.0    15   13.1   171    21.0   829.2   0.00  
 247    8:20    570   70.4    14   13.2   178    19.4   829.2   0.00  
 247    8:30    600   70.2    14   15.5   186    25.1   829.2   0.00  
 247    8:40    628   71.3    13   14.9   182    20.5   829.2   0.00  
 247    8:50    657   71.4    13   14.4   186    21.5   829.3   0.00  
 247    9:00    693   71.1    13   15.2   194    21.3   829.3   0.00  
 247    9:10    718   72.3    13   13.9   180    19.1   829.3   0.00  
 247    9:20    730   72.6    12   15.2   185    24.4   829.2   0.00  
 247    9:30    751   73.1    12   15.7   180    25.6   829.1   0.00  
 247    9:40    773   73.5    11   16.7   177    25.1   829.0   0.00  
 247    9:50    793   73.9    11   16.0   172    22.4   828.9   0.00  
 247   10:00    811   74.3    12   15.5   186    23.8   828.8   0.00  
 247   10:10    827   74.2    12   15.0   183    25.6   828.8   0.00  
 247   10:20    841   74.5    13   15.5   183    35.0   828.6   0.00  
 247   10:30    854   75.4    13   15.4   185    24.8   828.6   0.00  
 247   10:40    864   76.2    14   16.2   164    27.2   828.3   0.00  
 247   10:50    873   76.3    15   17.1   162    25.6   828.1   0.00  
 247   11:00    884   76.7    14   16.7   175    28.6   828.0   0.00  
 247   11:10    888   77.3    13   18.1   176    29.1   827.9   0.00  
 247   11:20    896   77.4    13   15.6   188    25.0   827.8   0.00  
 247   11:30    906   77.3    13   17.2   184    26.3   827.8   0.00  
 247   11:40    906   77.3    13   18.9   191    28.4   827.6   0.00  
 247   11:50    915   77.6    12   16.8   183    25.9   827.5   0.00  
 247   12:00    927   79.1    12   18.1   173    28.8   827.3   0.00  
 247   12:10    922   79.5    12   16.7   177    32.1   827.3   0.00  
 247   12:20    922   80.4    12   20.2   163    32.4   827.0   0.00  
 247   12:30    906   80.0    11   17.0   186    26.5   827.1   0.00  
 247   12:40    908   81.0    10   20.0   172    30.3   826.8   0.00  
 247   12:50    907   80.7     9   20.4   180    32.4   826.7   0.00  
 247   13:00    878   80.1     9   19.3   189    29.6   826.7   0.00  
 247   13:10    878   81.1     9   21.0   169    32.3   826.3   0.00  
 247   13:20    778   81.1     9   21.6   181    32.9   826.3   0.00  
 247   13:30    601   79.8     9   20.2   173    29.8   826.1   0.00  
 247   13:40    721   79.9     9   21.4   185    31.1   826.0   0.00  
 247   13:50    570   79.9     9   19.6   183    31.0   825.9   0.00  
 247   14:00    652   80.2     9   19.0   191    26.0   826.0   0.00  
 247   14:10    806   81.4     9   19.6   188    33.9   825.9   0.00  
 247   14:20    737   81.6     9   19.8   183    28.4   825.8   0.00  
 247   14:30    706   81.9     9   19.9   184    28.8   825.7   0.00  
 247   14:40    679   81.3     9   23.1   181    35.1   825.5   0.00  
 247   14:50    652   81.3     9   21.6   171    29.9   825.4   0.00  
 247   15:00    617   81.2     9   21.5   176    32.7   825.4   0.00  
 247   15:10    578   80.6    10   20.8   182    35.2   825.5   0.00  
 247   15:20    542   80.6    10   21.8   176    32.9   825.4   0.00  
 247   15:30    509   80.6    10   20.7   177    36.5   825.5   0.00  
 247   15:40    475   80.0    10   21.1   179    29.6   825.5   0.00  
 247   15:50    442   79.9    10   19.5   180    29.5   825.6   0.00  
 247   16:00    410   80.2    10   18.2   178    28.6   825.6   0.00  
 247   16:10    374   79.3    10   21.4   186    32.1   825.5   0.00  
 247   16:20    341   78.8    11   19.6   188    32.2   825.7   0.00  
 247   16:30    306   78.5    11   15.3   204    23.8   825.8   0.00  
 247   16:40    269   77.6    11   17.4   209    26.3   825.8   0.00  
 247   16:50    235   77.7    11   17.0   196    28.2   825.9   0.00  
 247   17:00    199   77.2    12   15.7   196    27.1   825.9   0.00  
 247   17:10    165   76.4    12   14.3   211    22.6   826.0   0.00  
 247   17:20    133   75.8    12   13.2   205    18.9   826.1   0.00  
 247   17:30    100   75.0    12   13.4   210    22.6   826.2   0.00  
 247   17:40     64   74.4    11   16.6   216    22.9   826.2   0.00  
 247   17:50     33   73.4    12   12.1   213    18.1   826.2   0.00  
 247   18:00     10   72.4    12   13.9   215    20.4   826.3   0.00  
 247   18:10      5   71.4    12   11.8   209    18.9   826.3   0.00  
 247   18:20      3   70.9    12    9.2   202    16.6   826.5   0.00  
 247   18:30      0   70.2    13    9.8   197    16.3   826.6   0.00  
 247   18:40      0   69.8    13    8.1   192    13.9   826.8   0.00  
 247   18:50      0   68.4    13    6.2   184    11.4   826.9   0.00  
 247   19:00      0   68.1    13    6.2   175     9.7   827.1   0.00  
 247   19:10      0   66.1    15    3.7   173     7.2   827.3   0.00  
 247   19:20      0   64.9    16    5.1   163     8.5   827.5   0.00  
 247   19:30      0   64.9    16    5.7   159     8.2   827.6   0.00  
 247   19:40      0   64.8    17    6.6   170     9.6   827.6   0.00  
 247   19:50      0   65.5    17    7.5   167    10.8   827.7   0.00  
 247   20:00      0   66.2    16    8.1   166    13.2   827.7   0.00  
 247   20:10    999  999.0   999  999.0   999   999.0   999.0  999.00  
 247   20:20      0   65.6    15    8.2   175    12.4   827.8   0.00  
 247   20:30      0   65.9    14    8.2   175    12.4   827.8   0.00  
 247   20:40      0   65.6    14    8.3   178    11.2   827.9   0.00  
 247   20:50      0   65.2    13    7.7   185    12.1   828.0   0.00  
 247   21:00      0   65.2    13    9.4   192    14.0   828.0   0.00  
 247   21:10      0   65.3    13    9.7   200    13.8   828.0   0.00  
 247   21:20      0   65.0    13    8.9   203    12.9   828.0   0.00  
 247   21:30      0   65.1    13    9.2   202    13.2   828.0   0.00  
 247   21:40      0   65.1    13    8.0   199    12.3   828.1   0.00  
 247   21:50      0   65.0    13    7.3   194    10.2   828.1   0.00  
 247   22:00      0   65.1    13    8.2   196    12.0   828.1   0.00  
 247   22:10      0   65.6    12    8.7   200    13.7   828.1   0.00  
 247   22:20      0   65.4    12    9.0   192    12.4   828.1   0.00  
 247   22:30      0   65.5    12    9.9   186    14.0   828.1   0.00  
 247   22:40      0   65.6    12   10.5   190    13.8   828.1   0.00  
 247   22:50      0   65.4    12    9.9   187    13.4   828.2   0.00  
 247   23:00      0   65.1    12    8.0   166    13.0   828.3   0.00  
 247   23:10      0   63.2    12    7.7   130    12.3   828.4   0.00  
 247   23:20      0   62.5    12    7.7   131    10.7   828.4   0.00  
 247   23:30      0   62.0    13    7.3   125     9.9   828.4   0.00  
 247   23:40      0   61.5    13    7.1   128    11.4   828.5   0.00  
 247   23:50      0   60.4    14    5.8   132     8.0   828.6   0.00  
 248    0:00      0   60.2    14    6.6   138    11.2   828.7   0.00  
 248    0:10      0   58.9    15    3.2   179     5.4   828.7   0.00  
 248    0:20      0   56.0    19    2.5   247     3.7   828.7   0.00  
 248    0:30      0   54.9    20    1.0   247     2.2   828.7   0.00  
 248    0:40      0   54.7    20    1.0   236     2.6   828.7   0.00  
 248    0:50      0   54.8    20    3.0    59     4.2   828.7   0.00  
 248    1:00      0   55.1    19    1.7    66     2.3   828.7   0.00  
 248    1:10      0   55.7    17    3.0   104     5.6   828.8   0.00  
 248    1:20      0   56.6    16    3.1   141     4.5   828.8   0.00  
 248    1:30      0   54.6    18    2.1   191     4.7   828.8   0.00  
 248    1:40      0   53.9    20    3.4   158     4.8   828.8   0.00  
 248    1:50      0   53.2    20    3.8   168     6.7   828.9   0.00  
 248    2:00      0   55.0    19    5.8   139     7.7   829.0   0.00  
 248    2:10      0   55.4    18    4.9   146     8.1   829.1   0.00  
 248    2:20      0   54.4    19    4.8   152     6.5   829.1   0.00  
 248    2:30      0   53.9    20    5.0   144     6.4   829.2   0.00  
 248    2:40      0   53.5    20    5.5   156     7.8   829.2   0.00  
 248    2:50      0   52.8    22    4.4   181     6.4   829.2   0.00  
 248    3:00      0   50.5    26    4.0   212     6.0   829.2   0.00  
 248    3:10      0   50.0    27    4.4   213     8.2   829.3   0.00  
 248    3:20      0   51.5    26    4.9   188     7.8   829.3   0.00  
 248    3:30      0   51.9    26    3.7   192     7.4   829.3   0.00  
 248    3:40      0   51.1    27    2.8   242     5.3   829.5   0.00  
 248    3:50      0   50.5    28    3.0   326     4.3   829.7   0.00  
 248    4:00      0   51.9    26    2.3   111     4.5   829.8   0.00  

Return to Duckwater graphs page.


Western Regional Climate Center,wrcc@dri.edu